createdAt,value
2019-03-30T00:03:01.833Z,97701.23
2019-03-30T00:07:03.812Z,97700.72
2019-03-30T00:11:05.708Z,97700.38
2019-03-30T00:15:07.747Z,97693.67
2019-03-30T00:19:09.646Z,97692.55
2019-03-30T00:23:11.531Z,97694.51
2019-03-30T00:27:13.467Z,97690.41
2019-03-30T00:31:15.378Z,97690.25
2019-03-30T00:35:17.528Z,97682.06
2019-03-30T00:39:19.434Z,97681.06
2019-03-30T00:43:21.316Z,97686.64
2019-03-30T00:47:23.208Z,97689.26
2019-03-30T00:51:25.098Z,97687.92
2019-03-30T00:55:26.995Z,97686.44
2019-03-30T00:59:28.900Z,97684.79
2019-03-30T01:03:30.790Z,97684.62
2019-03-30T01:07:32.691Z,97680.70
2019-03-30T01:11:34.587Z,97681.34
2019-03-30T01:15:49.722Z,97671.98
2019-03-30T01:20:02.341Z,97673.42
2019-03-30T01:23:55.247Z,97676.01
2019-03-30T01:27:57.144Z,97671.45
2019-03-30T01:31:59.044Z,97678.94
2019-03-30T01:36:01.109Z,97677.28
2019-03-30T01:40:03.226Z,97671.88
2019-03-30T01:44:05.199Z,97675.01
2019-03-30T01:48:07.091Z,97670.09
2019-03-30T01:52:09.038Z,97672.81
2019-03-30T01:56:11.004Z,97673.29
2019-03-30T02:00:13.859Z,97666.10
2019-03-30T02:04:15.763Z,97665.15
2019-03-30T02:08:17.656Z,97663.19
2019-03-30T02:12:19.541Z,97665.14
2019-03-30T02:16:21.444Z,97663.95
2019-03-30T02:20:39.150Z,97669.17
2019-03-30T02:24:41.046Z,97666.08
2019-03-30T02:28:42.980Z,97665.07
2019-03-30T02:32:44.880Z,97663.71
2019-03-30T02:36:47.488Z,97658.84
2019-03-30T02:40:49.422Z,97660.78
2019-03-30T02:44:51.303Z,97660.41
2019-03-30T02:48:53.213Z,97660.11
2019-03-30T02:53:02.812Z,97660.39
2019-03-30T02:57:04.801Z,97657.24
2019-03-30T03:01:06.705Z,97665.08
2019-03-30T03:05:09.613Z,97660.98
2019-03-30T03:09:11.486Z,97658.35
2019-03-30T03:13:13.389Z,97660.61
2019-03-30T03:17:15.277Z,97652.80
2019-03-30T03:21:17.170Z,97655.09
2019-03-30T03:25:20.145Z,97647.06
2019-03-30T03:29:22.034Z,97640.48
2019-03-30T03:33:23.921Z,97653.67
2019-03-30T03:37:43.380Z,97643.55
2019-03-30T03:41:29.667Z,97644.35
2019-03-30T03:45:31.573Z,97644.63
2019-03-30T03:49:33.462Z,97633.98
2019-03-30T03:53:36.570Z,97638.05
2019-03-30T03:57:43.471Z,97582.52
2019-03-30T04:01:47.679Z,97619.52
2019-03-30T04:05:50.683Z,97632.98
2019-03-30T04:10:37.696Z,97622.92
2019-03-30T04:14:43.008Z,97640.33
2019-03-30T04:18:47.949Z,97632.50
2019-03-30T04:22:48.992Z,97635.46
2019-03-30T04:26:50.901Z,97634.27
2019-03-30T04:30:52.798Z,97633.09
2019-03-30T04:34:54.695Z,97639.42
2019-03-30T04:38:56.605Z,97636.95
2019-03-30T04:42:58.601Z,97640.84
2019-03-30T04:47:00.511Z,97630.56
2019-03-30T04:51:02.424Z,97640.64
2019-03-30T04:55:06.706Z,97641.44
2019-03-30T04:59:08.604Z,97638.64
2019-03-30T05:03:10.510Z,97642.21
2019-03-30T05:07:12.407Z,97641.70
2019-03-30T05:11:14.327Z,97648.70
2019-03-30T05:15:16.478Z,97649.17
2019-03-30T05:19:18.463Z,97647.93
2019-03-30T05:23:20.423Z,97649.84
2019-03-30T05:27:22.328Z,97652.61
2019-03-30T05:31:24.229Z,97657.09
2019-03-30T05:35:26.120Z,97663.89
2019-03-30T05:39:28.022Z,97671.68
2019-03-30T05:43:29.926Z,97661.95
2019-03-30T05:47:31.848Z,97663.98
2019-03-30T05:51:33.839Z,97576.80
2019-03-30T05:55:35.795Z,97669.59
2019-03-30T05:59:37.694Z,97667.84
2019-03-30T06:03:40.565Z,97670.95
2019-03-30T06:07:42.471Z,97658.66
2019-03-30T06:11:44.432Z,97659.04
2019-03-30T06:15:46.328Z,97659.38
2019-03-30T06:19:48.239Z,97662.20
2019-03-30T06:23:50.151Z,97655.39
2019-03-30T06:27:52.114Z,97659.66
2019-03-30T06:31:54.046Z,97664.27
2019-03-30T06:35:55.971Z,97656.50
2019-03-30T06:39:57.878Z,97651.95
2019-03-30T06:43:59.793Z,97644.37
2019-03-30T06:48:01.709Z,97644.60
2019-03-30T06:52:03.646Z,97647.27
2019-03-30T06:56:05.552Z,97646.01
2019-03-30T07:00:09.352Z,97646.36
2019-03-30T07:04:12.108Z,97648.03
2019-03-30T07:08:16.394Z,97642.50
2019-03-30T07:12:26.239Z,97642.31
2019-03-30T07:16:31.298Z,97636.74
2019-03-30T07:20:33.240Z,97630.56
2019-03-30T07:24:35.159Z,97636.75
2019-03-30T07:28:37.159Z,97624.09
2019-03-30T07:32:39.064Z,97617.76
2019-03-30T07:36:40.983Z,97615.16
2019-03-30T07:40:42.885Z,97617.61
2019-03-30T07:44:44.789Z,97614.38
2019-03-30T07:48:47.865Z,97613.07
2019-03-30T07:52:49.828Z,97604.54
2019-03-30T07:57:04.288Z,97601.98
2019-03-30T08:00:55.401Z,97606.35
2019-03-30T08:04:57.329Z,97603.41
2019-03-30T08:08:59.382Z,97608.13
2019-03-30T08:13:01.278Z,97602.47
2019-03-30T08:17:03.238Z,97599.72
2019-03-30T08:21:05.209Z,97596.96
2019-03-30T08:25:08.044Z,97599.38
2019-03-30T08:29:09.984Z,97593.16
2019-03-30T08:41:45.927Z,97584.81
2019-03-30T08:45:49.061Z,97575.95
2019-03-30T08:49:51.015Z,97572.91
2019-03-30T08:53:55.113Z,97574.06
2019-03-30T08:57:58.198Z,97572.26
2019-03-30T09:02:00.126Z,97566.12
2019-03-30T09:06:02.129Z,97569.44
2019-03-30T09:10:06.544Z,97567.11
2019-03-30T09:14:08.480Z,97559.71
2019-03-30T09:18:10.410Z,97557.77
2019-03-30T09:22:12.369Z,97555.70
2019-03-30T09:26:16.664Z,97555.39
2019-03-30T09:30:18.457Z,97546.36
2019-03-30T09:34:20.403Z,97537.69
2019-03-30T09:38:22.440Z,97528.27
2019-03-30T09:42:24.424Z,97524.55
2019-03-30T09:46:26.326Z,97519.11
2019-03-30T09:50:28.246Z,97448.52
2019-03-30T09:54:30.188Z,97517.39
2019-03-30T09:58:32.126Z,97502.49
2019-03-30T10:02:34.074Z,97504.03
2019-03-30T10:06:36.043Z,97505.34
2019-03-30T10:10:37.995Z,97503.38
2019-03-30T10:14:39.941Z,97493.21
2019-03-30T10:18:41.916Z,97490.96
2019-03-30T10:22:44.839Z,97479.16
2019-03-30T10:26:48.018Z,97475.41
2019-03-30T10:30:49.926Z,97475.85
2019-03-30T10:34:51.878Z,97472.36
2019-03-30T10:38:54.086Z,97458.81
2019-03-30T10:42:56.113Z,97457.73
2019-03-30T10:46:58.064Z,97451.94
2019-03-30T10:51:00.117Z,97448.03
2019-03-30T10:55:02.086Z,97445.98
2019-03-30T10:59:04.871Z,97444.72
2019-03-30T11:03:07.183Z,97430.70
2019-03-30T11:11:31.582Z,97423.97
2019-03-30T11:15:34.329Z,97423.46
2019-03-30T11:19:36.395Z,97420.80
2019-03-30T11:23:38.315Z,97407.45
2019-03-30T11:27:40.247Z,97391.33
2019-03-30T11:31:42.276Z,97392.33
2019-03-30T11:35:44.192Z,97383.73
2019-03-30T11:39:46.192Z,97381.66
2019-03-30T11:43:48.135Z,97376.90
2019-03-30T11:47:50.059Z,97372.08
2019-03-30T11:51:51.994Z,97368.06
2019-03-30T11:55:53.916Z,97366.65
2019-03-30T11:59:55.854Z,97362.09
2019-03-30T12:03:57.776Z,97346.64
2019-03-30T12:07:59.737Z,97347.63
2019-03-30T12:12:02.306Z,97340.97
2019-03-30T12:16:04.882Z,97336.88
2019-03-30T12:20:08.713Z,97338.09
2019-03-30T12:24:10.631Z,97328.96
2019-03-30T12:28:12.563Z,97325.29
2019-03-30T12:32:14.473Z,97305.05
2019-03-30T12:36:16.403Z,97309.89
2019-03-30T12:40:18.392Z,97309.50
2019-03-30T12:44:20.314Z,97299.02
2019-03-30T12:48:22.236Z,97298.94
2019-03-30T12:52:26.483Z,97291.41
2019-03-30T12:56:27.791Z,97288.50
2019-03-30T13:00:29.692Z,97279.13
2019-03-30T13:04:31.688Z,97271.67
2019-03-30T13:08:33.607Z,97274.16
2019-03-30T13:12:35.525Z,97273.67
2019-03-30T13:16:37.452Z,97258.75
2019-03-30T13:20:39.451Z,97265.39
2019-03-30T13:24:41.373Z,97255.38
2019-03-30T13:28:43.299Z,97257.38
2019-03-30T13:32:45.389Z,97253.16
2019-03-30T13:36:48.125Z,97252.53
2019-03-30T13:40:50.050Z,97240.56
2019-03-30T13:44:52.015Z,97233.25
2019-03-30T13:48:53.945Z,97227.04
2019-03-30T13:52:55.844Z,97223.84
2019-03-30T13:56:57.757Z,97221.93
2019-03-30T14:00:59.680Z,97218.16
2019-03-30T14:05:01.818Z,97211.34
2019-03-30T14:09:04.662Z,97205.70
2019-03-30T14:13:06.795Z,97206.75
2019-03-30T14:17:08.721Z,97199.73
2019-03-30T14:21:10.642Z,97198.84
2019-03-30T14:25:12.642Z,97188.72
2019-03-30T14:29:14.629Z,97184.12
2019-03-30T14:33:16.620Z,97181.55
2019-03-30T14:37:18.533Z,97174.41
2019-03-30T14:41:20.455Z,97170.41
2019-03-30T14:45:22.372Z,97166.24
2019-03-30T14:49:24.301Z,97168.04
2019-03-30T14:53:26.329Z,97160.81
2019-03-30T14:57:28.342Z,97156.20
2019-03-30T15:01:30.249Z,97150.65
2019-03-30T15:05:32.210Z,97150.67
2019-03-30T15:09:34.110Z,97145.08
2019-03-30T15:13:36.032Z,97141.25
2019-03-30T15:17:40.611Z,97140.79
2019-03-30T15:21:41.807Z,97129.13
2019-03-30T15:25:43.716Z,97126.02
2019-03-30T15:29:45.775Z,97122.60
2019-03-30T15:33:48.222Z,97123.57
2019-03-30T15:37:50.153Z,97121.58
2019-03-30T15:41:52.078Z,97124.58
2019-03-30T15:45:54.007Z,97116.03
2019-03-30T15:49:55.926Z,97110.02
2019-03-30T15:53:57.842Z,97105.44
2019-03-30T15:57:59.776Z,97106.45
2019-03-30T16:02:01.762Z,97099.83
2019-03-30T16:06:03.682Z,97102.73
2019-03-30T16:10:07.207Z,97104.33
2019-03-30T16:14:09.120Z,97103.70
2019-03-30T16:18:11.033Z,97104.27
2019-03-30T16:22:13.018Z,97103.52
2019-03-30T16:26:15.115Z,97100.84
2019-03-30T16:30:18.226Z,97102.95
2019-03-30T16:34:20.418Z,97098.67
2019-03-30T16:38:22.414Z,97103.06
2019-03-30T16:42:24.386Z,97096.58
2019-03-30T16:46:26.299Z,97099.72
2019-03-30T16:50:28.196Z,97099.72
2019-03-30T16:54:30.116Z,97098.02
2019-03-30T16:58:32.030Z,97100.75
2019-03-30T17:02:33.961Z,97100.16
2019-03-30T17:06:50.282Z,97099.14
2019-03-30T17:10:52.452Z,97096.95
2019-03-30T17:14:54.367Z,97102.67
2019-03-30T17:18:56.287Z,97107.89
2019-03-30T17:22:59.039Z,97104.67
2019-03-30T17:27:01.680Z,97108.20
2019-03-30T17:31:03.583Z,97104.08
2019-03-30T17:35:07.303Z,97107.02
2019-03-30T17:39:11.961Z,97102.34
2019-03-30T17:43:13.875Z,97108.62
2019-03-30T17:47:15.784Z,97110.63
2019-03-30T17:51:17.691Z,97118.22
2019-03-30T17:55:33.128Z,97118.34
2019-03-30T17:59:24.424Z,97118.27
2019-03-30T18:03:26.391Z,97117.53
2019-03-30T18:07:28.313Z,97117.94
2019-03-30T18:11:30.213Z,97126.79
2019-03-30T18:15:34.732Z,97126.56
2019-03-30T18:19:35.973Z,97133.22
2019-03-30T18:23:37.914Z,97133.51
2019-03-30T18:27:39.830Z,97137.14
2019-03-30T18:31:42.541Z,97137.09
2019-03-30T18:35:44.753Z,97141.98
2019-03-30T18:39:47.029Z,97142.19
2019-03-30T18:43:49.876Z,97150.02
2019-03-30T18:47:52.211Z,97151.37
2019-03-30T18:51:55.015Z,97152.56
2019-03-30T18:55:56.926Z,97149.97
2019-03-30T18:59:58.832Z,97157.69
2019-03-30T19:04:00.727Z,97157.91
2019-03-30T19:08:03.933Z,97154.58
2019-03-30T19:12:05.993Z,97161.59
2019-03-30T19:16:08.067Z,97163.32
2019-03-30T19:20:10.570Z,97156.23
2019-03-30T19:24:12.480Z,97168.20
2019-03-30T19:28:14.374Z,97159.38
2019-03-30T19:32:16.258Z,97163.30
2019-03-30T19:36:18.168Z,97161.30
2019-03-30T19:40:20.081Z,97154.48
2019-03-30T19:44:21.960Z,97159.42
2019-03-30T19:48:23.854Z,97154.87
2019-03-30T19:52:39.321Z,97152.17
2019-03-30T19:56:29.416Z,97150.67
2019-03-30T20:00:31.397Z,97158.02
2019-03-30T20:04:33.358Z,97159.63
2019-03-30T20:08:35.251Z,97153.47
2019-03-30T20:12:37.943Z,97160.21
2019-03-30T20:16:42.205Z,97153.70
2019-03-30T20:20:43.552Z,97154.86
2019-03-30T20:24:45.453Z,97154.47
2019-03-30T20:28:48.470Z,97160.15
2019-03-30T20:32:50.364Z,97155.61
2019-03-30T20:36:52.259Z,97153.70
2019-03-30T20:40:54.231Z,97149.77
2019-03-30T20:44:56.122Z,97148.86
2019-03-30T20:48:58.022Z,97149.66
2019-03-30T20:52:59.944Z,97151.82
2019-03-30T20:57:01.845Z,97150.41
2019-03-30T21:01:04.383Z,97151.41
2019-03-30T21:05:08.283Z,97148.73
2019-03-30T21:09:11.039Z,97144.17
2019-03-30T21:13:12.942Z,97140.22
2019-03-30T21:17:14.837Z,97140.00
2019-03-30T21:21:16.735Z,97138.28
2019-03-30T21:25:18.633Z,97142.78
2019-03-30T21:29:20.512Z,97142.27
2019-03-30T21:33:22.424Z,97149.04
2019-03-30T21:37:24.342Z,97138.66
2019-03-30T21:41:26.231Z,97146.20
2019-03-30T21:45:28.218Z,97141.97
2019-03-30T21:49:31.138Z,97138.78
2019-03-30T21:53:33.176Z,97140.45
2019-03-30T21:57:35.083Z,97144.11
2019-03-30T22:01:36.983Z,97148.25
2019-03-30T22:05:38.878Z,97137.01
2019-03-30T22:09:41.526Z,97143.05
2019-03-30T22:13:43.423Z,97135.55
2019-03-30T22:17:45.318Z,97136.63
2019-03-30T22:21:48.447Z,97143.36
2019-03-30T22:25:50.347Z,97133.42
2019-03-30T22:29:52.309Z,97136.06
2019-03-30T22:33:54.203Z,97132.90
2019-03-30T22:37:56.114Z,97135.36
2019-03-30T22:41:58.009Z,97135.48
2019-03-30T22:45:59.902Z,97133.03
2019-03-30T22:50:01.789Z,97131.88
2019-03-30T22:54:03.765Z,97138.77
2019-03-30T22:58:05.652Z,97139.70
2019-03-30T23:02:07.762Z,97145.77
2019-03-30T23:06:09.676Z,97138.91
2019-03-30T23:10:11.730Z,97143.61
2019-03-30T23:14:13.627Z,97138.98
2019-03-30T23:18:15.529Z,97137.23
2019-03-30T23:22:17.422Z,97132.41
2019-03-30T23:26:19.323Z,97131.66
2019-03-30T23:30:21.221Z,97131.86
2019-03-30T23:34:23.128Z,97131.73
2019-03-30T23:38:25.023Z,97132.91
2019-03-30T23:42:26.932Z,97130.78
2019-03-30T23:46:28.828Z,97121.84
2019-03-30T23:50:30.720Z,97132.20
2019-03-30T23:54:32.629Z,97125.77
2019-03-30T23:58:34.534Z,97128.42
